WAT251 KRDU-KATL
Flight info
| Callsign | WAT251 |
|---|---|
| Flight time | 1h 0m |
| Altitude | 34000 |
| Route | SHPRD4 SHPRD DCT LEAVI OZZZI2 |
| Aircraft | B739/M-SDE2E3FGHIRWXY/LB1 |
Departure
| Time | 2026-05-07 01:38 |
|---|---|
| Airport | Raleigh-Durham International Airport (KRDU) |
Arrival
| Time | 2026-05-07 02:38 |
|---|---|
| Airport | Hartsfield Jackson Atlanta International Airport (KATL) |
| Time | Latitude | Longitude | Altitude | Speed | Heading |
|---|---|---|---|---|---|
| 2026-05-07 01:08 | 35.87936 | -78.79055 | 399 ft | 0 kts | 279° |
| 2026-05-07 01:24 | 35.87936 | -78.79056 | 399 ft | 0 kts | 279° |
| 2026-05-07 01:25 | 35.87935 | -78.79047 | 399 ft | 2 kts | 279° |
| 2026-05-07 01:25 | 35.87933 | -78.79029 | 400 ft | 2 kts | 279° |
| 2026-05-07 01:25 | 35.87930 | -78.79011 | 401 ft | 2 kts | 279° |
| 2026-05-07 01:25 | 35.87923 | -78.78999 | 402 ft | 1 kts | 342° |
| 2026-05-07 01:26 | 35.87911 | -78.79001 | 402 ft | 1 kts | 35° |
| 2026-05-07 01:26 | 35.87907 | -78.79006 | 402 ft | 1 kts | 49° |
| 2026-05-07 01:26 | 35.87904 | -78.79009 | 402 ft | 0 kts | 45° |
| 2026-05-07 01:26 | 35.87905 | -78.79009 | 402 ft | 0 kts | 45° |
| 2026-05-07 01:28 | 35.87928 | -78.78987 | 402 ft | 6 kts | 31° |
| 2026-05-07 01:29 | 35.87968 | -78.78961 | 402 ft | 6 kts | 20° |
| 2026-05-07 01:29 | 35.88021 | -78.78979 | 400 ft | 11 kts | 320° |
| 2026-05-07 01:29 | 35.88089 | -78.79055 | 395 ft | 13 kts | 327° |
| 2026-05-07 01:29 | 35.88165 | -78.79016 | 395 ft | 12 kts | 46° |
| 2026-05-07 01:30 | 35.88217 | -78.78948 | 398 ft | 9 kts | 46° |
| 2026-05-07 01:30 | 35.88258 | -78.78897 | 399 ft | 10 kts | 45° |
| 2026-05-07 01:30 | 35.88311 | -78.78833 | 400 ft | 10 kts | 45° |
| 2026-05-07 01:30 | 35.88361 | -78.78771 | 401 ft | 10 kts | 45° |
| 2026-05-07 01:31 | 35.88408 | -78.78713 | 402 ft | 9 kts | 45° |
| 2026-05-07 01:31 | 35.88455 | -78.78655 | 403 ft | 9 kts | 45° |
| 2026-05-07 01:31 | 35.88503 | -78.78595 | 403 ft | 10 kts | 45° |
| 2026-05-07 01:31 | 35.88554 | -78.78533 | 402 ft | 10 kts | 44° |
| 2026-05-07 01:32 | 35.88609 | -78.78468 | 402 ft | 12 kts | 44° |
| 2026-05-07 01:32 | 35.88676 | -78.78381 | 401 ft | 14 kts | 46° |
| 2026-05-07 01:32 | 35.88750 | -78.78288 | 399 ft | 15 kts | 45° |
| 2026-05-07 01:32 | 35.88827 | -78.78194 | 398 ft | 15 kts | 44° |
| 2026-05-07 01:33 | 35.88902 | -78.78103 | 399 ft | 14 kts | 45° |
| 2026-05-07 01:33 | 35.88969 | -78.78014 | 399 ft | 13 kts | 57° |
| 2026-05-07 01:33 | 35.89001 | -78.77911 | 400 ft | 11 kts | 63° |
| 2026-05-07 01:33 | 35.89051 | -78.77838 | 402 ft | 11 kts | 45° |
| 2026-05-07 01:34 | 35.89106 | -78.77769 | 402 ft | 11 kts | 45° |
| 2026-05-07 01:34 | 35.89153 | -78.77711 | 404 ft | 8 kts | 45° |
| 2026-05-07 01:34 | 35.89191 | -78.77666 | 405 ft | 9 kts | 33° |
| 2026-05-07 01:34 | 35.89261 | -78.77681 | 403 ft | 11 kts | 319° |
| 2026-05-07 01:35 | 35.89298 | -78.77724 | 403 ft | 0 kts | 314° |
| 2026-05-07 01:36 | 35.89315 | -78.77746 | 402 ft | 8 kts | 314° |
| 2026-05-07 01:36 | 35.89359 | -78.77800 | 402 ft | 8 kts | 307° |
| 2026-05-07 01:36 | 35.89344 | -78.77844 | 401 ft | 5 kts | 228° |
| 2026-05-07 01:37 | 35.89250 | -78.77966 | 398 ft | 48 kts | 225° |
| 2026-05-07 01:37 | 35.88860 | -78.78446 | 393 ft | 108 kts | 224° |
| 2026-05-07 01:37 | 35.88196 | -78.79270 | 383 ft | 159 kts | 224° |
| 2026-05-07 01:37 | 35.87349 | -78.80328 | 643 ft | 178 kts | 225° |
| 2026-05-07 01:38 | 35.86520 | -78.81396 | 1323 ft | 176 kts | 228° |
| 2026-05-07 01:38 | 35.85664 | -78.82533 | 1900 ft | 183 kts | 227° |
| 2026-05-07 01:38 | 35.84806 | -78.83662 | 2550 ft | 184 kts | 229° |
| 2026-05-07 01:38 | 35.83939 | -78.84839 | 3152 ft | 188 kts | 230° |
| 2026-05-07 01:39 | 35.83042 | -78.86056 | 3556 ft | 203 kts | 227° |
| 2026-05-07 01:39 | 35.82082 | -78.87404 | 3941 ft | 216 kts | 242° |
| 2026-05-07 01:39 | 35.81849 | -78.89219 | 4477 ft | 226 kts | 277° |
| 2026-05-07 01:39 | 35.82291 | -78.91099 | 5197 ft | 227 kts | 282° |
| 2026-05-07 01:40 | 35.82591 | -78.92973 | 5801 ft | 230 kts | 274° |
| 2026-05-07 01:40 | 35.82673 | -78.94997 | 6304 ft | 241 kts | 269° |
| 2026-05-07 01:40 | 35.82697 | -78.97066 | 6843 ft | 249 kts | 270° |
| 2026-05-07 01:40 | 35.82738 | -78.99241 | 7511 ft | 254 kts | 271° |
| 2026-05-07 01:41 | 35.82800 | -79.01399 | 8272 ft | 255 kts | 271° |
| 2026-05-07 01:41 | 35.82865 | -79.03561 | 9003 ft | 257 kts | 271° |
| 2026-05-07 01:41 | 35.82927 | -79.05766 | 9747 ft | 259 kts | 271° |
| 2026-05-07 01:41 | 35.82986 | -79.07999 | 10429 ft | 265 kts | 271° |
| 2026-05-07 01:42 | 35.83044 | -79.10307 | 10891 ft | 278 kts | 271° |
| 2026-05-07 01:42 | 35.83102 | -79.12717 | 11371 ft | 290 kts | 271° |
| 2026-05-07 01:42 | 35.83167 | -79.15250 | 11803 ft | 304 kts | 271° |
| 2026-05-07 01:42 | 35.83235 | -79.17922 | 11993 ft | 323 kts | 271° |
| 2026-05-07 01:43 | 35.83308 | -79.20732 | 11993 ft | 335 kts | 271° |
| 2026-05-07 01:43 | 35.83383 | -79.23658 | 12526 ft | 343 kts | 271° |
| 2026-05-07 01:43 | 35.83459 | -79.26569 | 13431 ft | 340 kts | 271° |
| 2026-05-07 01:43 | 35.83524 | -79.29448 | 14245 ft | 339 kts | 270° |
| 2026-05-07 01:44 | 35.83470 | -79.32335 | 14911 ft | 343 kts | 266° |
| 2026-05-07 01:44 | 35.83273 | -79.35270 | 15626 ft | 346 kts | 265° |
| 2026-05-07 01:44 | 35.83012 | -79.38241 | 16275 ft | 350 kts | 265° |
| 2026-05-07 01:44 | 35.82749 | -79.41190 | 16916 ft | 353 kts | 265° |
| 2026-05-07 01:45 | 35.82491 | -79.44213 | 17673 ft | 353 kts | 265° |
| 2026-05-07 01:45 | 35.82247 | -79.47214 | 18326 ft | 355 kts | 266° |
| 2026-05-07 01:45 | 35.82011 | -79.50231 | 18826 ft | 362 kts | 266° |
| 2026-05-07 01:45 | 35.81764 | -79.53327 | 19437 ft | 364 kts | 264° |
| 2026-05-07 01:46 | 35.81387 | -79.56432 | 19952 ft | 370 kts | 262° |
| 2026-05-07 01:46 | 35.80880 | -79.59515 | 20595 ft | 371 kts | 259° |
| 2026-05-07 01:46 | 35.80604 | -79.61070 | 20848 ft | 374 kts | 259° |
| 2026-05-07 01:46 | 35.80034 | -79.64224 | 21364 ft | 378 kts | 259° |
| 2026-05-07 01:47 | 35.79469 | -79.67361 | 21878 ft | 381 kts | 258° |
| 2026-05-07 01:47 | 35.78899 | -79.70561 | 22366 ft | 386 kts | 258° |
| 2026-05-07 01:47 | 35.78332 | -79.73790 | 22844 ft | 389 kts | 259° |
| 2026-05-07 01:47 | 35.77763 | -79.77064 | 23334 ft | 393 kts | 258° |
| 2026-05-07 01:48 | 35.77193 | -79.80357 | 23891 ft | 395 kts | 259° |
| 2026-05-07 01:48 | 35.76622 | -79.83673 | 24425 ft | 397 kts | 259° |
| 2026-05-07 01:48 | 35.76051 | -79.86984 | 25030 ft | 397 kts | 259° |
| 2026-05-07 01:48 | 35.75483 | -79.90273 | 25593 ft | 397 kts | 259° |
| 2026-05-07 01:49 | 35.74903 | -79.93617 | 26164 ft | 397 kts | 259° |
| 2026-05-07 01:49 | 35.74328 | -79.96928 | 26709 ft | 397 kts | 259° |
| 2026-05-07 01:49 | 35.73747 | -80.00263 | 27193 ft | 399 kts | 259° |
| 2026-05-07 01:49 | 35.73171 | -80.03557 | 27797 ft | 397 kts | 259° |
| 2026-05-07 01:50 | 35.72588 | -80.06892 | 28243 ft | 399 kts | 259° |
| 2026-05-07 01:50 | 35.72003 | -80.10264 | 28577 ft | 403 kts | 259° |
| 2026-05-07 01:50 | 35.71421 | -80.13615 | 28857 ft | 407 kts | 259° |
| 2026-05-07 01:50 | 35.70824 | -80.17039 | 29271 ft | 407 kts | 259° |
| 2026-05-07 01:51 | 35.70235 | -80.20403 | 29840 ft | 404 kts | 259° |
| 2026-05-07 01:51 | 35.69646 | -80.23753 | 30353 ft | 401 kts | 259° |
| 2026-05-07 01:51 | 35.69059 | -80.27080 | 30917 ft | 397 kts | 258° |
| 2026-05-07 01:51 | 35.68483 | -80.30356 | 31535 ft | 392 kts | 260° |
| 2026-05-07 01:52 | 35.67916 | -80.33581 | 32165 ft | 386 kts | 259° |
| 2026-05-07 01:52 | 35.67354 | -80.36786 | 32838 ft | 378 kts | 259° |
| 2026-05-07 01:52 | 35.66804 | -80.39896 | 33361 ft | 374 kts | 259° |
| 2026-05-07 01:52 | 35.66257 | -80.43018 | 33682 ft | 374 kts | 259° |
| 2026-05-07 01:53 | 35.65679 | -80.46121 | 33954 ft | 374 kts | 258° |
| 2026-05-07 01:53 | 35.63994 | -80.52190 | 33957 ft | 375 kts | 251° |
| 2026-05-07 01:54 | 35.61964 | -80.58188 | 33954 ft | 378 kts | 251° |
| 2026-05-07 01:54 | 35.59876 | -80.64249 | 33954 ft | 379 kts | 251° |
| 2026-05-07 01:55 | 35.57835 | -80.70185 | 33956 ft | 380 kts | 251° |
| 2026-05-07 01:55 | 35.55768 | -80.76202 | 33960 ft | 382 kts | 250° |
| 2026-05-07 01:56 | 35.53717 | -80.82157 | 33960 ft | 376 kts | 251° |
| 2026-05-07 01:56 | 35.51690 | -80.88106 | 33953 ft | 378 kts | 250° |
| 2026-05-07 01:57 | 35.49659 | -80.94058 | 33958 ft | 380 kts | 250° |
| 2026-05-07 01:57 | 35.47619 | -81.00045 | 33960 ft | 382 kts | 250° |
| 2026-05-07 01:58 | 35.45572 | -81.06049 | 33960 ft | 382 kts | 250° |
| 2026-05-07 01:58 | 35.43521 | -81.12015 | 33961 ft | 383 kts | 250° |
| 2026-05-07 01:59 | 35.41454 | -81.18012 | 33962 ft | 382 kts | 250° |
| 2026-05-07 01:59 | 35.39379 | -81.24043 | 33960 ft | 383 kts | 250° |
| 2026-05-07 02:00 | 35.37320 | -81.30026 | 33959 ft | 383 kts | 250° |
| 2026-05-07 02:00 | 35.35249 | -81.35991 | 33949 ft | 385 kts | 251° |
| 2026-05-07 02:01 | 35.33160 | -81.41979 | 33949 ft | 384 kts | 249° |
| 2026-05-07 02:01 | 35.31060 | -81.48039 | 33951 ft | 388 kts | 250° |
| 2026-05-07 02:02 | 35.28947 | -81.54079 | 33952 ft | 385 kts | 250° |
| 2026-05-07 02:02 | 35.26811 | -81.60123 | 33952 ft | 388 kts | 250° |
| 2026-05-07 02:03 | 35.24690 | -81.66188 | 33955 ft | 392 kts | 250° |
| 2026-05-07 02:03 | 35.22538 | -81.72352 | 33947 ft | 393 kts | 249° |
| 2026-05-07 02:04 | 35.20430 | -81.78504 | 33938 ft | 393 kts | 250° |
| 2026-05-07 02:04 | 35.18332 | -81.84674 | 33937 ft | 396 kts | 250° |
| 2026-05-07 02:05 | 35.16200 | -81.90868 | 33938 ft | 398 kts | 249° |
| 2026-05-07 02:05 | 35.13939 | -81.97050 | 33945 ft | 398 kts | 249° |
| 2026-05-07 02:06 | 35.11743 | -82.03231 | 33954 ft | 400 kts | 249° |
| 2026-05-07 02:06 | 35.09562 | -82.09451 | 33958 ft | 399 kts | 250° |
| 2026-05-07 02:07 | 35.07338 | -82.15676 | 33971 ft | 402 kts | 249° |
| 2026-05-07 02:07 | 35.04023 | -82.25011 | 33968 ft | 397 kts | 251° |
| 2026-05-07 02:08 | 35.01849 | -82.31201 | 33968 ft | 400 kts | 249° |
| 2026-05-07 02:08 | 34.99165 | -82.37118 | 33972 ft | 394 kts | 242° |
| 2026-05-07 02:09 | 34.96297 | -82.42808 | 33971 ft | 395 kts | 242° |
| 2026-05-07 02:09 | 34.93407 | -82.48510 | 33967 ft | 396 kts | 243° |
| 2026-05-07 02:10 | 34.90619 | -82.54265 | 33972 ft | 393 kts | 243° |
| 2026-05-07 02:10 | 34.87873 | -82.59985 | 33973 ft | 392 kts | 244° |
| 2026-05-07 02:11 | 34.84967 | -82.65601 | 33973 ft | 393 kts | 239° |
| 2026-05-07 02:11 | 34.81774 | -82.70998 | 33968 ft | 395 kts | 239° |
| 2026-05-07 02:12 | 34.78561 | -82.76399 | 33963 ft | 393 kts | 238° |
| 2026-05-07 02:12 | 34.75469 | -82.81782 | 33963 ft | 388 kts | 240° |
| 2026-05-07 02:13 | 34.72383 | -82.87226 | 33962 ft | 391 kts | 240° |
| 2026-05-07 02:13 | 34.69313 | -82.92653 | 33962 ft | 390 kts | 240° |
| 2026-05-07 02:14 | 34.66263 | -82.98042 | 33963 ft | 388 kts | 240° |
| 2026-05-07 02:14 | 34.64727 | -83.00749 | 33737 ft | 381 kts | 239° |
| 2026-05-07 02:14 | 34.63254 | -83.03338 | 33312 ft | 370 kts | 239° |
| 2026-05-07 02:15 | 34.61817 | -83.05868 | 32622 ft | 364 kts | 239° |
| 2026-05-07 02:15 | 34.60378 | -83.08409 | 31687 ft | 365 kts | 240° |
| 2026-05-07 02:15 | 34.58955 | -83.10933 | 30708 ft | 367 kts | 239° |
| 2026-05-07 02:15 | 34.57528 | -83.13463 | 29703 ft | 369 kts | 239° |
| 2026-05-07 02:16 | 34.56046 | -83.16083 | 28861 ft | 378 kts | 240° |
| 2026-05-07 02:16 | 34.54544 | -83.18735 | 28023 ft | 392 kts | 240° |
| 2026-05-07 02:16 | 34.53001 | -83.21455 | 27284 ft | 399 kts | 239° |
| 2026-05-07 02:16 | 34.51446 | -83.24193 | 26477 ft | 395 kts | 239° |
| 2026-05-07 02:17 | 34.49876 | -83.26933 | 25343 ft | 403 kts | 239° |
| 2026-05-07 02:17 | 34.48253 | -83.29769 | 24040 ft | 413 kts | 239° |
| 2026-05-07 02:17 | 34.46616 | -83.32604 | 23036 ft | 416 kts | 239° |
| 2026-05-07 02:17 | 34.44961 | -83.35447 | 22406 ft | 409 kts | 239° |
| 2026-05-07 02:18 | 34.43335 | -83.38240 | 21773 ft | 404 kts | 239° |
| 2026-05-07 02:18 | 34.41727 | -83.40997 | 21124 ft | 399 kts | 239° |
| 2026-05-07 02:18 | 34.40149 | -83.43695 | 20476 ft | 394 kts | 239° |
| 2026-05-07 02:18 | 34.38585 | -83.46373 | 19800 ft | 389 kts | 240° |
| 2026-05-07 02:19 | 34.37027 | -83.49048 | 19149 ft | 385 kts | 239° |
| 2026-05-07 02:19 | 34.35504 | -83.51659 | 18516 ft | 380 kts | 239° |
| 2026-05-07 02:19 | 34.33998 | -83.54247 | 17857 ft | 376 kts | 239° |
| 2026-05-07 02:19 | 34.32503 | -83.56818 | 17232 ft | 371 kts | 239° |
| 2026-05-07 02:20 | 34.31039 | -83.59338 | 16618 ft | 367 kts | 239° |
| 2026-05-07 02:20 | 34.29552 | -83.61819 | 15968 ft | 364 kts | 237° |
| 2026-05-07 02:20 | 34.27910 | -83.64105 | 15336 ft | 362 kts | 231° |
| 2026-05-07 02:20 | 34.26073 | -83.66208 | 14727 ft | 364 kts | 226° |
| 2026-05-07 02:21 | 34.24155 | -83.68215 | 14085 ft | 365 kts | 225° |
| 2026-05-07 02:21 | 34.22222 | -83.70192 | 13476 ft | 360 kts | 224° |
| 2026-05-07 02:21 | 34.20356 | -83.72113 | 13088 ft | 349 kts | 225° |
| 2026-05-07 02:21 | 34.18554 | -83.73989 | 12853 ft | 334 kts | 225° |
| 2026-05-07 02:22 | 34.16851 | -83.75779 | 12713 ft | 315 kts | 225° |
| 2026-05-07 02:22 | 34.15250 | -83.77465 | 12584 ft | 293 kts | 225° |
| 2026-05-07 02:22 | 34.13750 | -83.79050 | 12456 ft | 281 kts | 225° |
| 2026-05-07 02:22 | 34.12280 | -83.80631 | 12320 ft | 286 kts | 226° |
| 2026-05-07 02:23 | 34.10805 | -83.82231 | 12173 ft | 281 kts | 226° |
| 2026-05-07 02:23 | 34.09356 | -83.83745 | 11980 ft | 272 kts | 224° |
| 2026-05-07 02:23 | 34.07970 | -83.85214 | 11963 ft | 263 kts | 227° |
| 2026-05-07 02:23 | 34.06611 | -83.86723 | 11920 ft | 261 kts | 228° |
| 2026-05-07 02:24 | 34.05267 | -83.88143 | 11732 ft | 256 kts | 224° |
| 2026-05-07 02:24 | 34.03872 | -83.89484 | 11452 ft | 251 kts | 224° |
| 2026-05-07 02:24 | 34.02554 | -83.90780 | 11247 ft | 244 kts | 225° |
| 2026-05-07 02:24 | 34.01240 | -83.92082 | 10952 ft | 242 kts | 224° |
| 2026-05-07 02:25 | 33.99946 | -83.93365 | 10612 ft | 240 kts | 223° |
| 2026-05-07 02:25 | 33.98671 | -83.94638 | 10295 ft | 238 kts | 224° |
| 2026-05-07 02:25 | 33.97382 | -83.95911 | 9828 ft | 242 kts | 224° |
| 2026-05-07 02:25 | 33.96090 | -83.97193 | 9454 ft | 241 kts | 224° |
| 2026-05-07 02:26 | 33.94801 | -83.98468 | 9211 ft | 235 kts | 224° |
| 2026-05-07 02:26 | 33.93539 | -83.99710 | 8961 ft | 233 kts | 224° |
| 2026-05-07 02:26 | 33.92299 | -84.00942 | 8947 ft | 233 kts | 223° |
| 2026-05-07 02:26 | 33.91051 | -84.02189 | 8946 ft | 227 kts | 223° |
| 2026-05-07 02:27 | 33.89867 | -84.03381 | 8944 ft | 215 kts | 224° |
| 2026-05-07 02:27 | 33.88735 | -84.04495 | 8869 ft | 204 kts | 225° |
| 2026-05-07 02:27 | 33.87648 | -84.05536 | 8585 ft | 199 kts | 224° |
| 2026-05-07 02:27 | 33.86485 | -84.06433 | 8243 ft | 205 kts | 207° |
| 2026-05-07 02:28 | 33.85007 | -84.06604 | 7823 ft | 223 kts | 183° |
| 2026-05-07 02:28 | 33.83470 | -84.06262 | 7536 ft | 223 kts | 179° |
| 2026-05-07 02:28 | 33.81956 | -84.05903 | 7159 ft | 222 kts | 179° |
| 2026-05-07 02:28 | 33.80442 | -84.05571 | 6827 ft | 220 kts | 179° |
| 2026-05-07 02:29 | 33.78936 | -84.05237 | 6521 ft | 217 kts | 179° |
| 2026-05-07 02:29 | 33.77453 | -84.04906 | 6119 ft | 219 kts | 179° |
| 2026-05-07 02:29 | 33.75960 | -84.04597 | 5751 ft | 218 kts | 179° |
| 2026-05-07 02:29 | 33.74474 | -84.04301 | 5465 ft | 214 kts | 179° |
| 2026-05-07 02:30 | 33.72995 | -84.04007 | 5140 ft | 213 kts | 179° |
| 2026-05-07 02:30 | 33.71545 | -84.03726 | 4966 ft | 207 kts | 179° |
| 2026-05-07 02:30 | 33.70133 | -84.03462 | 4963 ft | 207 kts | 179° |
| 2026-05-07 02:30 | 33.68668 | -84.03186 | 4960 ft | 212 kts | 179° |
| 2026-05-07 02:31 | 33.67227 | -84.03040 | 4960 ft | 204 kts | 193° |
| 2026-05-07 02:31 | 33.66000 | -84.03679 | 4962 ft | 191 kts | 225° |
| 2026-05-07 02:31 | 33.65322 | -84.05077 | 4971 ft | 197 kts | 251° |
| 2026-05-07 02:31 | 33.65070 | -84.06705 | 4963 ft | 201 kts | 259° |
| 2026-05-07 02:32 | 33.64954 | -84.08357 | 4955 ft | 196 kts | 263° |
| 2026-05-07 02:32 | 33.64917 | -84.10000 | 4962 ft | 201 kts | 264° |
| 2026-05-07 02:32 | 33.64911 | -84.11722 | 4958 ft | 204 kts | 265° |
| 2026-05-07 02:32 | 33.64913 | -84.13419 | 4952 ft | 198 kts | 265° |
| 2026-05-07 02:33 | 33.64919 | -84.14992 | 4890 ft | 179 kts | 265° |
| 2026-05-07 02:33 | 33.64918 | -84.16421 | 4649 ft | 167 kts | 264° |
| 2026-05-07 02:33 | 33.64908 | -84.17799 | 4177 ft | 168 kts | 265° |
| 2026-05-07 02:33 | 33.64922 | -84.19180 | 3941 ft | 159 kts | 265° |
| 2026-05-07 02:34 | 33.64928 | -84.20537 | 3974 ft | 169 kts | 265° |
| 2026-05-07 02:34 | 33.64926 | -84.21928 | 3963 ft | 167 kts | 265° |
| 2026-05-07 02:34 | 33.64934 | -84.23344 | 3823 ft | 168 kts | 265° |
| 2026-05-07 02:34 | 33.64938 | -84.24757 | 3592 ft | 167 kts | 263° |
| 2026-05-07 02:35 | 33.64939 | -84.26154 | 3367 ft | 169 kts | 264° |
| 2026-05-07 02:35 | 33.64938 | -84.27555 | 3143 ft | 167 kts | 264° |
| 2026-05-07 02:35 | 33.64948 | -84.28964 | 2918 ft | 170 kts | 266° |
| 2026-05-07 02:35 | 33.64952 | -84.30389 | 2684 ft | 172 kts | 265° |
| 2026-05-07 02:36 | 33.64944 | -84.31809 | 2473 ft | 164 kts | 266° |
| 2026-05-07 02:36 | 33.64951 | -84.33135 | 2257 ft | 151 kts | 266° |
| 2026-05-07 02:36 | 33.64954 | -84.34338 | 2047 ft | 142 kts | 267° |
| 2026-05-07 02:36 | 33.64944 | -84.35532 | 1872 ft | 143 kts | 266° |
| 2026-05-07 02:37 | 33.64950 | -84.36737 | 1690 ft | 146 kts | 268° |
| 2026-05-07 02:37 | 33.64954 | -84.37946 | 1496 ft | 143 kts | 265° |
| 2026-05-07 02:37 | 33.64948 | -84.39140 | 1315 ft | 143 kts | 268° |
| 2026-05-07 02:37 | 33.64957 | -84.40349 | 1118 ft | 146 kts | 268° |
| 2026-05-07 02:38 | 33.64956 | -84.41567 | 985 ft | 145 kts | 269° |
| 2026-05-07 02:38 | 33.64952 | -84.42772 | 993 ft | 144 kts | 269° |
| 2026-05-07 02:38 | 33.64949 | -84.43771 | 1013 ft | 79 kts | 270° |
| 2026-05-07 02:38 | 33.64953 | -84.44106 | 1014 ft | 10 kts | 269° |
| 2026-05-07 02:39 | 33.64946 | -84.44137 | 1014 ft | 2 kts | 200° |
| 2026-05-07 02:39 | 33.64913 | -84.44112 | 1014 ft | 8 kts | 108° |
| 2026-05-07 02:39 | 33.64936 | -84.44013 | 1014 ft | 17 kts | 76° |
| 2026-05-07 02:39 | 33.64927 | -84.43881 | 1014 ft | 12 kts | 147° |
| 2026-05-07 02:40 | 33.64843 | -84.43861 | 1016 ft | 12 kts | 163° |
| 2026-05-07 02:40 | 33.64763 | -84.43826 | 1016 ft | 12 kts | 163° |
| 2026-05-07 02:40 | 33.64663 | -84.43820 | 1016 ft | 14 kts | 181° |
| 2026-05-07 02:40 | 33.64563 | -84.43812 | 1016 ft | 14 kts | 150° |
| 2026-05-07 02:41 | 33.64537 | -84.43703 | 1013 ft | 16 kts | 88° |
| 2026-05-07 02:41 | 33.64541 | -84.43553 | 1011 ft | 18 kts | 89° |
| 2026-05-07 02:41 | 33.64509 | -84.43433 | 1008 ft | 14 kts | 157° |
| 2026-05-07 02:41 | 33.64415 | -84.43398 | 1009 ft | 14 kts | 159° |
| 2026-05-07 02:42 | 33.64315 | -84.43393 | 1010 ft | 10 kts | 181° |
| 2026-05-07 02:42 | 33.64269 | -84.43379 | 1010 ft | 4 kts | 109° |
| 2026-05-07 02:42 | 33.64263 | -84.43336 | 1010 ft | 4 kts | 93° |
| 2026-05-07 02:42 | 33.64263 | -84.43323 | 1009 ft | 0 kts | 90° |